Time;durP1;ratioP1;P1;durP2;ratioP2;P2;SDS_P1;SDS_P2;PMS_P1;PMS_P2;Temp;Humidity;BMP_temperature;BMP_pressure;BME280_temperature;BME280_humidity;BME280_pressure;Samples;Min_cycle;Max_cycle;Signal;HPM_P1;HPM_P2
2023/09/25 00:01:34;;;;;;;;;;;;;;;17.43;55.40;101670.28;4230382;28;19955;-58
2023/09/25 00:03:36;;;;;;;;;;;;;;;17.44;55.82;101665.81;4230731;28;20286;-59
2023/09/25 00:05:37;;;;;;;;;;;;;;;17.43;55.74;101670.28;4230386;28;19927;-58
2023/09/25 00:07:40;;;;;;;;;;;;;;;17.43;55.74;101672.94;4230595;28;20324;-58
2023/09/25 00:09:41;;;;;;;;;;;;;;;17.40;55.28;101671.31;4230602;28;19959;-58
2023/09/25 00:11:44;;;;;;;;;;;;;;;17.42;55.61;101679.19;4230483;28;20019;-59
2023/09/25 00:13:46;;;;;;;;;;;;;;;17.42;55.64;101681.00;4230446;28;19924;-58
2023/09/25 00:15:47;;;;;;;;;;;;;;;17.41;55.62;101672.16;4230640;28;19928;-58
2023/09/25 00:17:49;;;;;;;;;;;;;;;17.41;55.73;101677.47;4230610;28;19924;-58
2023/09/25 00:19:51;;;;;;;;;;;;;;;17.40;55.63;101675.78;4230163;28;19923;-58
2023/09/25 00:21:52;;;;;;;;;;;;;;;17.40;55.60;101679.28;4230309;28;20223;-59
2023/09/25 00:23:54;;;;;;;;;;;;;;;17.40;55.84;101678.44;4230596;28;19931;-58
2023/09/25 00:26:08;;;;;;;;;;;;;;;17.40;55.57;101673.97;4230490;28;19924;-59
2023/09/25 00:28:10;;;;;;;;;;;;;;;17.39;55.82;101677.56;4230345;28;19924;-59
2023/09/25 00:30:12;;;;;;;;;;;;;;;17.39;55.84;101680.22;4230290;28;20014;-59
2023/09/25 00:32:13;;;;;;;;;;;;;;;17.39;55.78;101682.03;4230580;28;20339;-59
2023/09/25 00:34:15;;;;;;;;;;;;;;;17.41;55.51;101682.78;4230127;28;19945;-59
2023/09/25 00:36:18;;;;;;;;;;;;;;;17.40;55.54;101673.13;4230359;28;20439;-59
2023/09/25 00:38:20;;;;;;;;;;;;;;;17.39;55.77;101680.22;4230290;28;19951;-58
2023/09/25 00:40:24;;;;;;;;;;;;;;;17.40;55.31;101683.75;4230294;28;19960;-58
2023/09/25 00:42:26;;;;;;;;;;;;;;;17.34;55.47;101673.38;4230333;28;19924;-59
2023/09/25 00:44:28;;;;;;;;;;;;;;;17.39;55.65;101679.38;4230462;28;19939;-59
2023/09/25 00:46:30;;;;;;;;;;;;;;;17.40;55.45;101673.97;4230567;28;20030;-59
2023/09/25 00:48:32;;;;;;;;;;;;;;;17.37;55.81;101673.25;4229910;28;19924;-58
2023/09/25 00:50:34;;;;;;;;;;;;;;;17.37;55.80;101670.59;4230395;28;20393;-59
2023/09/25 00:52:37;;;;;;;;;;;;;;;17.36;55.86;101666.22;4230404;28;20340;-58
2023/09/25 00:54:38;;;;;;;;;;;;;;;17.36;55.55;101675.06;4230110;28;19924;-58
2023/09/25 00:56:42;;;;;;;;;;;;;;;17.35;55.88;101670.69;4230422;28;19973;-58
2023/09/25 00:58:44;;;;;;;;;;;;;;;17.35;55.94;101670.69;4212080;28;19936;-58
2023/09/25 01:00:46;;;;;;;;;;;;;;;17.36;56.00;101675.06;4230075;28;19924;-58
2023/09/25 01:02:47;;;;;;;;;;;;;;;17.34;55.90;101666.28;4245492;28;19934;-59
2023/09/25 01:04:49;;;;;;;;;;;;;;;17.34;55.96;101663.63;4230299;28;19928;-58
2023/09/25 01:06:51;;;;;;;;;;;;;;;17.34;56.02;101663.63;4230271;28;19943;-58
2023/09/25 01:08:53;;;;;;;;;;;;;;;17.33;55.63;101659.25;4230178;28;20074;-59
2023/09/25 01:10:55;;;;;;;;;;;;;;;17.33;56.00;101658.41;4230285;28;20347;-59
2023/09/25 01:12:57;;;;;;;;;;;;;;;17.35;55.92;101661.81;4230277;28;19977;-59
2023/09/25 01:14:58;;;;;;;;;;;;;;;17.33;55.92;101650.41;4230272;28;19951;-59
2023/09/25 01:17:00;;;;;;;;;;;;;;;17.33;55.60;101655.75;4229786;28;20273;-59
2023/09/25 01:19:06;;;;;;;;;;;;;;;17.33;55.80;101667.22;4230003;28;19924;-58
2023/09/25 01:21:07;;;;;;;;;;;;;;;17.33;55.73;101656.59;4229855;28;20423;-58
2023/09/25 01:23:09;;;;;;;;;;;;;;;17.33;55.85;101664.56;4230023;28;19927;-58
2023/09/25 01:25:11;;;;;;;;;;;;;;;17.32;55.54;101660.19;4233123;28;20435;-58
2023/09/25 01:27:13;;;;;;;;;;;;;;;17.32;55.79;101654.84;4232234;28;19955;-59
2023/09/25 01:29:17;;;;;;;;;;;;;;;17.33;55.89;101661.06;4248784;27;19931;-58
2023/09/25 01:31:19;;;;;;;;;;;;;;;17.32;55.99;101662.84;4233281;28;19923;-59
2023/09/25 01:33:20;;;;;;;;;;;;;;;17.33;55.85;101656.59;4232791;28;20350;-59
2023/09/25 01:35:23;;;;;;;;;;;;;;;17.33;55.64;101656.59;4233004;28;19977;-59
2023/09/25 01:37:26;;;;;;;;;;;;;;;17.31;55.84;101655.78;4232933;28;19924;-59
2023/09/25 01:39:28;;;;;;;;;;;;;;;17.32;55.97;101651.34;4232970;28;20454;-58
2023/09/25 01:41:29;;;;;;;;;;;;;;;17.32;55.50;101662.00;4232859;28;20022;-59
2023/09/25 01:43:31;;;;;;;;;;;;;;;17.32;55.73;101659.34;4233026;28;19931;-59
2023/09/25 01:45:33;;;;;;;;;;;;;;;17.33;55.83;101656.59;4233154;28;19950;-59
2023/09/25 01:47:35;;;;;;;;;;;;;;;17.32;55.73;101656.69;4232742;28;20011;-58
2023/09/25 01:49:37;;;;;;;;;;;;;;;17.30;56.00;101661.19;4233174;28;19963;-59
2023/09/25 01:51:39;;;;;;;;;;;;;;;17.31;55.87;101652.28;4232755;28;19923;-58
2023/09/25 01:53:41;;;;;;;;;;;;;;;17.29;55.79;101647.06;4232549;28;19924;-58
2023/09/25 01:55:42;;;;;;;;;;;;;;;17.28;55.95;101650.66;4232435;28;19924;-58
2023/09/25 01:57:44;;;;;;;;;;;;;;;17.30;55.59;101642.59;4232582;28;19924;-58
2023/09/25 01:59:45;;;;;;;;;;;;;;;17.29;55.94;101649.72;4232449;28;19976;-58
2023/09/25 02:01:47;;;;;;;;;;;;;;;17.30;55.85;101651.41;4232474;28;20413;-57
2023/09/25 02:03:49;;;;;;;;;;;;;;;17.29;56.01;101648.84;4232593;28;19934;-58
2023/09/25 02:05:51;;;;;;;;;;;;;;;17.29;55.95;101652.38;4232386;28;19976;-58
2023/09/25 02:07:52;;;;;;;;;;;;;;;17.29;56.03;101648.84;4232452;28;20006;-58
2023/09/25 02:09:54;;;;;;;;;;;;;;;17.27;55.97;101651.56;4232454;28;19931;-58
2023/09/25 02:11:55;;;;;;;;;;;;;;;17.28;56.09;101647.09;4232434;28;20381;-58
2023/09/25 02:13:57;;;;;;;;;;;;;;;17.27;56.01;101640.06;4232368;28;20457;-58
2023/09/25 02:15:58;;;;;;;;;;;;;;;17.27;55.88;101646.25;4232125;28;19923;-59
2023/09/25 02:18:00;;;;;;;;;;;;;;;17.27;55.97;101643.59;4232355;28;19947;-59
2023/09/25 02:20:16;;;;;;;;;;;;;;;17.28;55.89;101640.00;4232375;28;19927;-58
2023/09/25 02:22:17;;;;;;;;;;;;;;;17.29;55.99;101640.84;4232034;28;20382;-59
2023/09/25 02:24:19;;;;;;;;;;;;;;;17.26;56.00;101639.22;4232247;28;20441;-59
2023/09/25 02:26:21;;;;;;;;;;;;;;;17.27;56.04;101645.38;4232289;28;19942;-58
2023/09/25 02:28:22;;;;;;;;;;;;;;;17.28;55.98;101647.09;4232281;28;19968;-58
2023/09/25 02:30:24;;;;;;;;;;;;;;;17.26;55.95;101652.50;4231829;28;20293;-58
2023/09/25 02:32:26;;;;;;;;;;;;;;;17.26;55.80;101657.81;4231924;28;19968;-59
2023/09/25 02:34:28;;;;;;;;;;;;;;;17.26;56.02;101660.47;4231939;28;19959;-58
2023/09/25 02:36:29;;;;;;;;;;;;;;;17.26;55.81;101649.00;4231149;28;19934;-59
2023/09/25 02:38:31;;;;;;;;;;;;;;;17.26;55.74;101649.00;4232163;28;19923;-58
2023/09/25 02:40:33;;;;;;;;;;;;;;;17.24;55.91;101649.94;4232085;28;19927;-59
2023/09/25 02:42:34;;;;;;;;;;;;;;;17.25;55.84;101650.78;4232025;28;19923;-58
2023/09/25 02:44:36;;;;;;;;;;;;;;;17.25;55.91;101645.47;4231539;28;19930;-58
2023/09/25 02:46:38;;;;;;;;;;;;;;;17.26;55.92;101641.03;4247824;27;20339;-58
2023/09/25 02:48:40;;;;;;;;;;;;;;;17.26;55.99;101641.03;4231763;28;20378;-59
2023/09/25 02:50:41;;;;;;;;;;;;;;;17.24;55.95;101633.97;4231788;28;19946;-58
2023/09/25 02:52:46;;;;;;;;;;;;;;;17.24;55.93;101641.97;4231747;28;20359;-58
2023/09/25 02:54:48;;;;;;;;;;;;;;;17.25;55.72;101640.16;4231733;28;19935;-58
2023/09/25 02:56:49;;;;;;;;;;;;;;;17.24;55.93;101641.97;4231776;28;19924;-58
2023/09/25 02:58:51;;;;;;;;;;;;;;;17.26;55.64;101644.53;4231266;28;20383;-59
2023/09/25 03:00:53;;;;;;;;;;;;;;;17.26;55.90;101647.19;4231654;28;19923;-59
2023/09/25 03:02:54;;;;;;;;;;;;;;;17.26;55.92;101654.31;4231403;28;20042;-58
2023/09/25 03:04:56;;;;;;;;;;;;;;;17.23;55.99;101656.19;4231681;28;19931;-58
2023/09/25 03:06:57;;;;;;;;;;;;;;;17.23;55.78;101655.31;4231698;28;19924;-59
2023/09/25 03:08:59;;;;;;;;;;;;;;;17.22;56.08;101648.28;4231651;28;19927;-59
2023/09/25 03:11:01;;;;;;;;;;;;;;;17.21;55.92;101652.72;4231547;28;19936;-58
2023/09/25 03:13:02;;;;;;;;;;;;;;;17.21;55.73;101649.22;4231158;28;19923;-59
2023/09/25 03:15:07;;;;;;;;;;;;;;;17.20;55.87;101653.66;4231241;28;19931;-58
2023/09/25 03:17:09;;;;;;;;;;;;;;;17.19;55.81;101654.63;4231353;28;19932;-59
2023/09/25 03:19:10;;;;;;;;;;;;;;;17.20;55.91;101653.66;4231331;28;19970;-59
2023/09/25 03:21:13;;;;;;;;;;;;;;;17.22;55.77;101658.91;4247062;27;19970;-58
2023/09/25 03:23:15;;;;;;;;;;;;;;;17.21;55.71;101654.53;4231373;28;19923;-59
2023/09/25 03:25:16;;;;;;;;;;;;;;;17.21;55.94;101655.38;4231211;28;19930;-58
2023/09/25 03:27:18;;;;;;;;;;;;;;;17.20;56.05;101645.69;4231232;28;19934;-59
2023/09/25 03:29:20;;;;;;;;;;;;;;;17.23;56.01;101655.31;4230792;28;19927;-58
2023/09/25 03:31:22;;;;;;;;;;;;;;;17.22;55.62;101658.91;4231133;28;19935;-58
2023/09/25 03:33:27;;;;;;;;;;;;;;;17.22;55.91;101665.09;4231182;28;19923;-58
2023/09/25 03:35:29;;;;;;;;;;;;;;;17.21;56.03;101671.34;4231315;28;19928;-58
2023/09/25 03:37:31;;;;;;;;;;;;;;;17.21;55.95;101667.81;4231247;28;20396;-58
2023/09/25 03:39:32;;;;;;;;;;;;;;;17.20;56.08;101666.09;4230935;28;20018;-58
2023/09/25 03:41:34;;;;;;;;;;;;;;;17.21;55.99;101665.16;4230983;28;19954;-59
2023/09/25 03:43:35;;;;;;;;;;;;;;;17.22;56.03;101677.53;4230720;28;20015;-59
2023/09/25 03:45:37;;;;;;;;;;;;;;;17.21;55.80;101675.81;4231223;28;19924;-58
2023/09/25 03:47:39;;;;;;;;;;;;;;;17.20;55.72;101671.41;4230671;28;19927;-58
2023/09/25 03:49:42;;;;;;;;;;;;;;;17.20;55.68;101663.44;4231007;28;20300;-58
2023/09/25 03:51:43;;;;;;;;;;;;;;;17.20;56.09;101668.75;4231244;28;19931;-58
2023/09/25 03:53:45;;;;;;;;;;;;;;;17.19;55.87;101665.25;4230901;28;20339;-58
2023/09/25 03:55:47;;;;;;;;;;;;;;;17.20;55.81;101666.09;4230811;28;19965;-58
2023/09/25 03:57:48;;;;;;;;;;;;;;;17.19;55.99;101667.91;4230528;28;20019;-59
2023/09/25 03:59:50;;;;;;;;;;;;;;;17.21;55.85;101676.66;4231013;28;19924;-58
2023/09/25 04:01:52;;;;;;;;;;;;;;;17.19;56.02;101678.53;4212582;28;20015;-58
2023/09/25 04:03:53;;;;;;;;;;;;;;;17.20;55.75;101679.38;4230527;28;19934;-58
2023/09/25 04:05:55;;;;;;;;;;;;;;;17.20;55.71;101674.06;4230589;28;19930;-59
2023/09/25 04:07:57;;;;;;;;;;;;;;;17.18;55.87;101671.50;4230989;28;19973;-58
2023/09/25 04:09:58;;;;;;;;;;;;;;;17.18;55.81;101681.25;4230801;28;19927;-59
2023/09/25 04:12:00;;;;;;;;;;;;;;;17.18;56.11;101690.09;4230391;28;19931;-59
2023/09/25 04:14:02;;;;;;;;;;;;;;;17.15;56.05;101692.91;4230683;28;20018;-58
2023/09/25 04:16:03;;;;;;;;;;;;;;;17.15;55.93;101695.56;4230838;28;19924;-58
2023/09/25 04:18:06;;;;;;;;;;;;;;;17.15;56.10;101684.91;4230547;28;20393;-59
2023/09/25 04:20:14;;;;;;;;;;;;;;;17.14;55.91;101690.31;4230515;28;19931;-59
2023/09/25 04:22:16;;;;;;;;;;;;;;;17.14;55.92;101698.28;4230334;28;19930;-58
2023/09/25 04:24:18;;;;;;;;;;;;;;;17.13;55.84;101688.59;4230333;28;19923;-59
2023/09/25 04:26:23;;;;;;;;;;;;;;;17.13;55.80;101686.78;4230351;28;19923;-58
2023/09/25 04:28:25;;;;;;;;;;;;;;;17.13;56.19;101691.25;4246157;28;19924;-58
2023/09/25 04:30:27;;;;;;;;;;;;;;;17.15;56.03;101682.25;4230617;28;19923;-58
2023/09/25 04:32:29;;;;;;;;;;;;;;;17.15;56.04;101690.25;4230377;28;20022;-59
2023/09/25 04:34:31;;;;;;;;;;;;;;;17.17;56.03;101687.50;4230826;28;20013;-58
2023/09/25 04:36:32;;;;;;;;;;;;;;;17.17;55.88;101691.03;4230511;28;19931;-58
2023/09/25 04:38:37;;;;;;;;;;;;;;;17.17;55.73;101684.84;4230372;28;19924;-59
2023/09/25 04:40:41;;;;;;;;;;;;;;;17.17;56.04;101691.03;4230088;28;19924;-58
2023/09/25 04:42:42;;;;;;;;;;;;;;;17.16;55.77;101689.31;4230322;28;20465;-58
2023/09/25 04:44:44;;;;;;;;;;;;;;;17.16;55.89;101699.09;4230467;28;19923;-58
2023/09/25 04:46:46;;;;;;;;;;;;;;;17.16;56.04;101691.13;4230859;28;20388;-58
2023/09/25 04:48:50;;;;;;;;;;;;;;;17.13;55.97;101694.75;4230214;28;19924;-58
2023/09/25 04:50:52;;;;;;;;;;;;;;;17.13;56.15;101693.91;4230266;28;20365;-59
2023/09/25 04:52:53;;;;;;;;;;;;;;;17.15;55.86;101694.72;4230479;28;19923;-59
2023/09/25 04:54:57;;;;;;;;;;;;;;;17.15;56.11;101700.88;4230164;28;20335;-58
2023/09/25 04:56:58;;;;;;;;;;;;;;;17.15;56.07;101702.69;4230389;28;19973;-58
2023/09/25 04:59:00;;;;;;;;;;;;;;;17.14;56.10;101706.28;4231575;28;19924;-59
2023/09/25 05:01:02;;;;;;;;;;;;;;;17.12;56.08;101713.44;4233619;28;20081;-58
2023/09/25 05:03:04;;;;;;;;;;;;;;;17.12;55.88;101727.63;4233512;28;19930;-58
2023/09/25 05:05:06;;;;;;;;;;;;;;;17.12;55.90;101722.31;4233352;28;19931;-58
2023/09/25 05:07:07;;;;;;;;;;;;;;;17.12;56.02;101724.97;4233497;28;19962;-58
2023/09/25 05:09:11;;;;;;;;;;;;;;;17.12;55.96;101721.41;4233144;28;20018;-59
2023/09/25 05:11:13;;;;;;;;;;;;;;;17.12;56.06;101716.97;4233319;28;20403;-59
2023/09/25 05:13:14;;;;;;;;;;;;;;;17.13;55.85;101716.03;4233332;28;19928;-58
2023/09/25 05:15:16;;;;;;;;;;;;;;;17.13;56.08;101715.19;4233406;28;20385;-59
2023/09/25 05:17:18;;;;;;;;;;;;;;;17.13;55.92;101717.84;4233382;28;19946;-59
2023/09/25 05:19:20;;;;;;;;;;;;;;;17.12;56.11;101718.75;4233349;28;19928;-59
2023/09/25 05:21:21;;;;;;;;;;;;;;;17.08;56.11;101721.59;4233175;28;19924;-58
2023/09/25 05:23:24;;;;;;;;;;;;;;;17.10;55.89;101718.84;4233170;28;20361;-58
2023/09/25 05:25:26;;;;;;;;;;;;;;;17.08;55.98;101716.25;4232942;28;20194;-58
2023/09/25 05:27:28;;;;;;;;;;;;;;;17.08;56.21;101716.25;4232929;28;20457;-59
2023/09/25 05:29:30;;;;;;;;;;;;;;;17.10;55.92;101710.88;4233249;28;19974;-58
2023/09/25 05:31:32;;;;;;;;;;;;;;;17.09;56.00;101707.34;4233162;28;19924;-58
2023/09/25 05:33:33;;;;;;;;;;;;;;;17.09;55.97;101709.13;4233210;28;20363;-57
2023/09/25 05:35:35;;;;;;;;;;;;;;;17.08;56.10;101702.97;4232935;28;19923;-58
2023/09/25 05:37:37;;;;;;;;;;;;;;;17.08;56.00;101704.75;4233150;28;20243;-59
2023/09/25 05:39:38;;;;;;;;;;;;;;;17.08;56.01;101715.38;4232644;28;19924;-60
2023/09/25 05:41:40;;;;;;;;;;;;;;;17.08;55.89;101716.25;4232961;28;19928;-59
2023/09/25 05:43:42;;;;;;;;;;;;;;;17.08;55.96;101710.94;4232736;28;19924;-59
2023/09/25 05:45:44;;;;;;;;;;;;;;;17.09;56.02;101712.66;4233033;28;19927;-58
2023/09/25 05:47:45;;;;;;;;;;;;;;;17.09;55.95;101717.13;4232848;28;19969;-58
2023/09/25 05:49:47;;;;;;;;;;;;;;;17.08;55.94;101726.00;4232783;28;20389;-58
2023/09/25 05:51:53;;;;;;;;;;;;;;;17.09;55.94;101728.59;4232585;28;19932;-58
2023/09/25 05:53:55;;;;;;;;;;;;;;;17.08;55.95;101729.56;4232172;28;19924;-58
2023/09/25 05:55:56;;;;;;;;;;;;;;;17.05;55.88;101732.34;4232626;28;19927;-58
2023/09/25 05:57:58;;;;;;;;;;;;;;;17.07;56.24;101734.91;4232727;28;19924;-58
2023/09/25 06:00:00;;;;;;;;;;;;;;;17.08;55.95;101731.34;4232417;28;20000;-58
2023/09/25 06:02:02;;;;;;;;;;;;;;;17.07;56.10;101738.47;4232654;28;20388;-58
2023/09/25 06:04:03;;;;;;;;;;;;;;;17.08;56.16;101742.84;4232260;28;20416;-58
2023/09/25 06:06:05;;;;;;;;;;;;;;;17.07;56.12;101735.81;4232567;28;19931;-58
2023/09/25 06:08:07;;;;;;;;;;;;;;;17.07;56.02;101729.59;4232092;28;19963;-58
2023/09/25 06:10:09;;;;;;;;;;;;;;;17.07;56.17;101733.13;4232357;28;19927;-58
2023/09/25 06:12:13;;;;;;;;;;;;;;;17.07;55.99;101729.59;4232516;28;19923;-58
2023/09/25 06:14:15;;;;;;;;;;;;;;;17.07;56.08;101729.59;4232358;28;19923;-59
2023/09/25 06:16:17;;;;;;;;;;;;;;;17.07;56.12;101738.47;4232022;28;19969;-58
2023/09/25 06:18:18;;;;;;;;;;;;;;;17.08;56.04;101744.63;4232371;28;19931;-58
2023/09/25 06:20:20;;;;;;;;;;;;;;;17.07;56.11;101746.44;4232366;28;19938;-58
2023/09/25 06:22:22;;;;;;;;;;;;;;;17.06;56.13;101747.34;4231718;28;19992;-58
2023/09/25 06:24:23;;;;;;;;;;;;;;;17.07;56.10;101745.56;4232142;28;20061;-58
2023/09/25 06:26:27;;;;;;;;;;;;;;;17.08;55.71;101749.94;4232282;28;19930;-58
2023/09/25 06:28:29;;;;;;;;;;;;;;;17.05;55.85;101742.13;4232174;28;19963;-58
2023/09/25 06:30:31;;;;;;;;;;;;;;;17.04;56.19;101741.25;4232077;28;19930;-59
2023/09/25 06:32:33;;;;;;;;;;;;;;;17.04;55.94;101741.25;4232116;28;19928;-58
2023/09/25 06:34:34;;;;;;;;;;;;;;;17.03;56.13;101744.84;4232224;28;19924;-58
2023/09/25 06:36:36;;;;;;;;;;;;;;;17.03;55.88;101750.16;4231693;28;19962;-59
2023/09/25 06:38:38;;;;;;;;;;;;;;;17.03;56.27;101751.97;4232006;28;19924;-58
2023/09/25 06:40:43;;;;;;;;;;;;;;;17.02;56.29;101750.22;4231954;28;20404;-58
2023/09/25 06:42:45;;;;;;;;;;;;;;;17.02;56.39;101745.78;4231791;28;19923;-58
2023/09/25 06:44:47;;;;;;;;;;;;;;;17.01;56.31;101738.75;4232058;28;20028;-58
2023/09/25 06:46:48;;;;;;;;;;;;;;;17.03;56.26;101741.31;4231746;28;20408;-58
2023/09/25 06:48:50;;;;;;;;;;;;;;;17.02;56.42;101748.44;4231915;28;20368;-58
2023/09/25 06:50:52;;;;;;;;;;;;;;;17.03;55.91;101747.50;4231468;28;19923;-59
2023/09/25 06:52:54;;;;;;;;;;;;;;;17.03;55.86;101755.47;4231688;28;19923;-58
2023/09/25 06:54:56;;;;;;;;;;;;;;;17.04;56.07;101764.31;4231698;28;19931;-58
2023/09/25 06:56:58;;;;;;;;;;;;;;;17.04;56.06;101759.00;4231897;28;19924;-59
2023/09/25 06:59:00;;;;;;;;;;;;;;;17.04;56.27;101759.00;4231533;28;20495;-59
2023/09/25 07:01:01;;;;;;;;;;;;;;;17.02;55.87;101764.41;4231569;28;19938;-59
2023/09/25 07:03:03;;;;;;;;;;;;;;;17.03;56.02;101767.91;4231718;28;19977;-58
2023/09/25 07:05:05;;;;;;;;;;;;;;;17.03;56.04;101768.75;4213084;28;20430;-58
2023/09/25 07:07:07;;;;;;;;;;;;;;;17.05;55.75;101766.03;4213543;28;19924;-59
2023/09/25 07:09:09;;;;;;;;;;;;;;;17.06;56.03;101767.75;4231716;28;19943;-58
2023/09/25 07:11:10;;;;;;;;;;;;;;;17.06;56.12;101771.28;4231483;28;20446;-58
2023/09/25 07:13:12;;;;;;;;;;;;;;;17.06;55.98;101773.94;4231564;28;19924;-59
2023/09/25 07:15:13;;;;;;;;;;;;;;;17.08;56.15;101765.88;4231408;28;20292;-58
2023/09/25 07:17:16;;;;;;;;;;;;;;;17.07;55.78;101777.44;4231351;28;20025;-58
2023/09/25 07:19:18;;;;;;;;;;;;;;;17.09;56.02;101771.13;4231424;28;19954;-58
2023/09/25 07:21:20;;;;;;;;;;;;;;;17.11;55.83;101771.06;4230238;28;19934;-58
2023/09/25 07:23:22;;;;;;;;;;;;;;;17.12;55.74;101764.81;4231117;28;20016;-58
2023/09/25 07:25:23;;;;;;;;;;;;;;;17.15;55.84;101771.78;4231388;28;19969;-58
2023/09/25 07:27:27;;;;;;;;;;;;;;;17.17;55.87;101768.13;4231329;28;19924;-58
2023/09/25 07:29:30;;;;;;;;;;;;;;;17.17;55.63;101762.81;4231346;28;20006;-58
2023/09/25 07:31:42;;;;;;;;;;;;;;;17.18;55.79;101761.00;4231110;28;19930;-58
2023/09/25 07:33:44;;;;;;;;;;;;;;;17.21;55.65;101763.53;4230850;28;19969;-58
2023/09/25 07:35:45;;;;;;;;;;;;;;;17.20;55.78;101762.66;4246482;27;20018;-58
2023/09/25 07:37:47;;;;;;;;;;;;;;;17.20;55.68;101767.97;4213015;28;19924;-58
2023/09/25 07:39:49;;;;;;;;;;;;;;;17.19;55.69;101770.72;4230913;28;19974;-58
2023/09/25 07:41:51;;;;;;;;;;;;;;;17.19;55.59;101768.03;4230843;28;19932;-58
2023/09/25 07:43:54;;;;;;;;;;;;;;;17.18;55.69;101774.28;4230744;28;20011;-58
2023/09/25 07:46:00;;;;;;;;;;;;;;;17.18;55.64;101774.28;4230968;28;19974;-58
2023/09/25 07:48:03;;;;;;;;;;;;;;;17.18;55.56;101780.50;4230877;28;20308;-58
2023/09/25 07:50:10;;;;;;;;;;;;;;;17.17;55.53;101785.84;4230626;28;20355;-58
2023/09/25 07:52:15;;;;;;;;;;;;;;;17.16;55.67;101785.00;4231047;28;20181;-58
2023/09/25 07:54:17;;;;;;;;;;;;;;;17.05;55.65;101764.22;4230842;28;20442;-58
2023/09/25 07:56:19;;;;;;;;;;;;;;;17.17;55.84;101773.44;4230597;28;19924;-58
2023/09/25 07:58:20;;;;;;;;;;;;;;;17.17;55.91;101780.53;4230823;28;20011;-58
2023/09/25 08:00:24;;;;;;;;;;;;;;;17.16;55.50;101777.03;4230868;28;19924;-58
2023/09/25 08:02:26;;;;;;;;;;;;;;;17.17;55.80;101783.19;4230639;28;19977;-58
2023/09/25 08:04:28;;;;;;;;;;;;;;;17.18;55.52;101788.47;4230266;28;19989;-58
2023/09/25 08:06:32;;;;;;;;;;;;;;;17.17;55.89;101778.75;4230673;28;19953;-58
2023/09/25 08:08:34;;;;;;;;;;;;;;;17.18;55.77;101788.47;4230480;28;20010;-59
2023/09/25 08:10:36;;;;;;;;;;;;;;;17.20;55.74;101783.06;4230526;28;19924;-58
2023/09/25 08:12:37;;;;;;;;;;;;;;;17.22;55.80;101789.19;4230692;28;19934;-58
2023/09/25 08:14:39;;;;;;;;;;;;;;;17.22;55.81;101786.53;4230726;28;20087;-58
2023/09/25 08:16:40;;;;;;;;;;;;;;;17.24;55.62;101792.63;4230598;28;19934;-59
2023/09/25 08:18:42;;;;;;;;;;;;;;;17.24;55.83;101788.19;4230340;28;19928;-59
2023/09/25 08:20:43;;;;;;;;;;;;;;;17.24;55.78;101793.50;4230570;28;19955;-58
2023/09/25 08:22:45;;;;;;;;;;;;;;;17.26;55.68;101796.06;4230352;28;19924;-58
2023/09/25 08:24:47;;;;;;;;;;;;;;;17.27;55.55;101789.81;4230475;28;19955;-58
2023/09/25 08:26:49;;;;;;;;;;;;;;;17.27;55.67;101794.25;4230712;28;19993;-59
2023/09/25 08:28:50;;;;;;;;;;;;;;;17.29;55.54;101789.75;4230565;28;19957;-58
2023/09/25 08:30:52;;;;;;;;;;;;;;;17.29;55.60;101787.97;4230443;28;20419;-59
2023/09/25 08:32:54;;;;;;;;;;;;;;;17.29;55.48;101790.63;4230232;28;20274;-58
2023/09/25 08:34:56;;;;;;;;;;;;;;;17.29;55.46;101784.44;4233715;28;20024;-58
2023/09/25 08:36:57;;;;;;;;;;;;;;;17.31;55.26;101788.72;4233865;28;19924;-58
2023/09/25 08:38:59;;;;;;;;;;;;;;;17.31;55.57;101786.06;4234032;28;19938;-58
2023/09/25 08:41:01;;;;;;;;;;;;;;;17.31;55.19;101779.91;4233893;28;19932;-58
2023/09/25 08:43:03;;;;;;;;;;;;;;;17.33;55.45;101780.72;4233761;28;20015;-58
2023/09/25 08:45:21;;;;;;;;;;;;;;;17.33;55.15;101778.06;4233889;28;20069;-58
2023/09/25 08:47:24;;;;;;;;;;;;;;;17.34;55.33;101785.06;4249185;27;19965;-57
2023/09/25 08:49:25;;;;;;;;;;;;;;;17.33;55.32;101786.88;4233644;28;20399;-58
2023/09/25 08:51:34;;;;;;;;;;;;;;;17.35;55.25;101792.13;4233628;28;19930;-57
2023/09/25 08:53:37;;;;;;;;;;;;;;;17.34;55.43;101785.94;4233778;28;19954;-58
2023/09/25 08:55:40;;;;;;;;;;;;;;;17.35;55.32;101785.00;4233628;28;20350;-57
2023/09/25 08:57:42;;;;;;;;;;;;;;;17.36;55.39;101785.88;4233441;28;19969;-57
2023/09/25 08:59:46;;;;;;;;;;;;;;;17.36;55.46;101775.22;4215596;28;19943;-58
2023/09/25 09:01:47;;;;;;;;;;;;;;;17.37;55.12;101774.31;4233409;28;20347;-58
2023/09/25 09:03:49;;;;;;;;;;;;;;;17.37;55.31;101782.28;4233294;28;19927;-59
2023/09/25 09:05:52;;;;;;;;;;;;;;;17.38;55.20;101787.50;4233696;28;20437;-59
2023/09/25 09:07:57;;;;;;;;;;;;;;;17.38;55.26;101786.66;4215524;28;20015;-59
2023/09/25 09:09:58;;;;;;;;;;;;;;;17.38;55.16;101792.84;4233429;28;19946;-59
2023/09/25 09:12:01;;;;;;;;;;;;;;;17.39;55.38;101791.06;4233365;28;19924;-58
2023/09/25 09:14:02;;;;;;;;;;;;;;;17.42;55.48;101792.69;4233446;28;19947;-59
2023/09/25 09:16:10;;;;;;;;;;;;;;;17.40;55.32;101795.44;4232833;28;19962;-59
2023/09/25 09:18:17;;;;;;;;;;;;;;;17.40;55.19;101796.28;4233179;28;20411;-59
2023/09/25 09:20:23;;;;;;;;;;;;;;;17.43;55.18;101799.75;4233308;28;19928;-59
2023/09/25 09:22:25;;;;;;;;;;;;;;;17.44;55.21;101798.78;4233106;28;19930;-58
2023/09/25 09:24:28;;;;;;;;;;;;;;;17.44;55.50;101807.66;4233012;28;19963;-59
2023/09/25 09:26:30;;;;;;;;;;;;;;;17.46;55.32;101807.56;4233554;28;20271;-58
2023/09/25 09:28:32;;;;;;;;;;;;;;;17.47;55.24;101802.16;4232996;28;19931;-59
2023/09/25 09:30:34;;;;;;;;;;;;;;;17.49;55.29;101808.28;4214815;28;20476;-58
2023/09/25 09:32:38;;;;;;;;;;;;;;;17.51;55.26;101810.88;4233027;28;19924;-59
2023/09/25 09:34:40;;;;;;;;;;;;;;;17.52;55.18;101813.47;4233024;28;19924;-59
2023/09/25 09:37:00;;;;;;;;;;;;;;;17.53;55.28;101820.53;4233077;28;20395;-58
2023/09/25 09:39:03;;;;;;;;;;;;;;;17.55;55.15;101821.28;4233078;28;19936;-58
2023/09/25 09:41:06;;;;;;;;;;;;;;;17.55;55.14;101818.63;4232867;28;20343;-58
2023/09/25 09:43:08;;;;;;;;;;;;;;;17.56;55.25;101820.34;4232808;28;19966;-58
2023/09/25 09:45:09;;;;;;;;;;;;;;;17.56;54.98;101814.19;4231881;28;19927;-58
2023/09/25 09:47:15;;;;;;;;;;;;;;;17.55;55.20;101815.97;4232914;28;19928;-58
2023/09/25 09:49:18;;;;;;;;;;;;;;;17.56;55.17;101817.69;4232943;28;19927;-58
2023/09/25 09:51:20;;;;;;;;;;;;;;;17.57;55.12;101826.56;4232778;28;19970;-58
2023/09/25 09:53:22;;;;;;;;;;;;;;;17.57;55.17;101818.56;4232932;28;19932;-59
2023/09/25 09:55:24;;;;;;;;;;;;;;;17.57;54.94;101818.56;4232517;28;19977;-58
2023/09/25 09:57:27;;;;;;;;;;;;;;;17.59;54.68;101816.69;4232678;28;19967;-58
2023/09/25 09:59:28;;;;;;;;;;;;;;;17.61;54.97;101821.97;4232416;28;20370;-58
2023/09/25 10:01:33;;;;;;;;;;;;;;;17.60;54.80;101823.72;4232799;28;19928;-58
2023/09/25 10:03:36;;;;;;;;;;;;;;;17.60;54.95;101821.06;4232658;28;19955;-57
2023/09/25 10:05:44;;;;;;;;;;;;;;;17.61;54.77;101825.47;4232312;28;19924;-58
2023/09/25 10:08:05;;;;;;;;;;;;;;;17.61;55.17;101820.16;4232640;28;20027;-58
2023/09/25 10:10:07;;;;;;;;;;;;;;;17.63;54.83;101828.94;4232356;28;20377;-58
2023/09/25 10:12:09;;;;;;;;;;;;;;;17.63;55.19;101830.72;4232572;28;20335;-58
2023/09/25 10:14:10;;;;;;;;;;;;;;;17.65;55.02;101829.69;4232161;28;19924;-58
2023/09/25 10:16:14;;;;;;;;;;;;;;;17.65;54.78;101823.53;4232409;28;19927;-58
2023/09/25 10:18:16;;;;;;;;;;;;;;;17.67;54.75;101819.00;4232445;28;19923;-58
2023/09/25 10:20:30;;;;;;;;;;;;;;;17.68;54.95;101816.25;4232461;28;19928;-59
2023/09/25 10:22:31;;;;;;;;;;;;;;;17.70;54.88;101819.72;4232073;28;20018;-58
2023/09/25 10:24:33;;;;;;;;;;;;;;;17.70;55.08;101816.19;4232479;28;19941;-58
2023/09/25 10:26:38;;;;;;;;;;;;;;;17.70;55.00;101824.16;4232215;28;20309;-57
2023/09/25 10:28:39;;;;;;;;;;;;;;;17.71;54.79;101825.88;4231695;28;19969;-60